SondeTracker

Meteorological Radiosondes Database

Operations

Sounding was ended - last measurement: 2022-12-07 12:01:42z

MAP
About Radiosonde

Number: U3534526

Launch Site: Shearwater [NS] (CA)

Type: RS41

AUX: NO

Frequency: 401.001 MHz

Max Speed: 111 km/h at 11553 m

Average Speed: 38.00 km/h

Max Altitude: 13167 m

Average Ascent Speed: 4.73 m/s

Average Descent Speed: 0.00 m/s

Status: LOST

Status Changes
Launch Site Type AUX Frequency Status Finder Landing Point Description Changes made by
MHz LOST 0, 0 AUTO STATUS: Probably lost in the water [BOT]AUTO-STATUS - 2022-12-07 13:13:48z
APRS Statistics

Received Frames: 57

First Frame [UTC]: 2022-12-07 11:20:09z

Last Frame [UTC]: 2022-12-07 12:01:42z

Receivers: VE1RUS

Flight Time: 00:41:33 h

Distance From First Measurement: 24.93 km

Nearest City: [0.00 km]

Nearest Hunter: VE1DAY [19.24 km]

Ground Altitude: -123 m

Distance from QTH: 0.00 km

APRS Data
Receiver Number Date/Time [UTC] φ λ Course [°] Speed [km/h] Altitude [m] Description
VE1RUSU35345262022-12-07 12:01:4244.605-63.23491218713167Clb=3.0m/s t=-61.3C h=8.3% p=-1.0hPa 401.001 MHz Type=RS41-SG ser=U3534526 Radiosonde
VE1RUSU35345262022-12-07 12:00:5744.6091-63.24341269412928Clb=6.7m/s t=-63.4C h=12.1% p=-1.0hPa 401.001 MHz Type=RS41-SG ser=U3534526 Radiosonde
VE1RUSU35345262022-12-07 11:57:4044.617-63.26161357012369Clb=8.8m/s t=-63.1C h=27.4% p=-1.0hPa 401.001 MHz Type=RS41-SG ser=U3534526 Radiosonde
VE1RUSU35345262022-12-07 11:54:3444.6327-63.295611911111553Clb=6.1m/s t=-64.4C h=55.1% p=-1.0hPa 401.001 MHz Type=RS41-SG ser=U3534526 Radiosonde
VE1RUSU35345262022-12-07 11:51:1844.673-63.4139121729589Clb=3.2m/s t=-50.7C h=52.1% p=-1.0hPa 401.001 MHz Type=RS41-SG ser=U3534526 Radiosonde
VE1RUSU35345262022-12-07 11:51:1544.6737-63.4162109969543Clb=3.5m/s t=-50.2C h=49.1% p=-1.0hPa 401.001 MHz Type=RS41-SG ser=U3534526 Radiosonde
VE1RUSU35345262022-12-07 11:51:1344.6757-63.4232102729399Clb=8.0m/s t=-48.9C h=48.5% p=-1.0hPa 401.001 MHz Type=RS41-SG ser=U3534526 Radiosonde
VE1RUSU35345262022-12-07 11:51:0644.6786-63.4313111749181Clb=6.8m/s t=-47.2C h=51.9% p=-1.0hPa 401.001 MHz Type=RS41-SG ser=U3534526 Radiosonde
VE1RUSU35345262022-12-07 11:50:1644.6801-63.4357127549055Clb=5.0m/s t=-46.0C h=50.8% p=-1.0hPa 401.001 MHz Type=RS41-SG ser=U3534526 Radiosonde
VE1RUSU35345262022-12-07 11:49:2044.682-63.4422112548886Clb=5.6m/s t=-44.5C h=47.0% p=-1.0hPa 401.001 MHz Type=RS41-SG ser=U3534526 Radiosonde
VE1RUSU35345262022-12-07 11:48:2344.6836-63.448110528696Clb=5.9m/s t=-42.9C h=54.7% p=-1.0hPa 401.001 MHz Type=RS41-SG ser=U3534526 Radiosonde
VE1RUSU35345262022-12-07 11:47:2444.6849-63.457689528404Clb=5.0m/s t=-40.2C h=41.9% p=-1.0hPa 401.001 MHz Type=RS41-SG ser=U3534526 Radiosonde
VE1RUSU35345262022-12-07 11:46:2544.6853-63.4593105508353Clb=4.0m/s t=-39.7C h=40.4% p=-1.0hPa 401.001 MHz Type=RS41-SG ser=U3534526 Radiosonde
VE1RUSU35345262022-12-07 11:44:2944.687-63.4685114447974Clb=3.8m/s t=-36.2C h=26.1% p=-1.0hPa 401.001 MHz Type=RS41-SG ser=U3534526 Radiosonde
VE1RUSU35345262022-12-07 11:43:5944.6874-63.4707115287885Clb=4.8m/s t=-35.4C h=26.4% p=-1.0hPa 401.001 MHz Type=RS41-SG ser=U3534526 Radiosonde
VE1RUSU35345262022-12-07 11:43:5044.6881-63.4746110287715Clb=4.4m/s t=-33.8C h=25.7% p=-1.0hPa 401.001 MHz Type=RS41-SG ser=U3534526 Radiosonde
VE1RUSU35345262022-12-07 11:43:3844.6889-63.479694467508Clb=6.3m/s t=-31.9C h=29.7% p=-1.0hPa 401.001 MHz Type=RS41-SG ser=U3534526 Radiosonde
VE1RUSU35345262022-12-07 11:43:0744.6891-63.484383337319Clb=6.0m/s t=-30.1C h=30.4% p=-1.0hPa 401.001 MHz Type=RS41-SG ser=U3534526 Radiosonde
VE1RUSU35345262022-12-07 11:42:4144.6892-63.4871102397205Clb=4.1m/s t=-29.3C h=35.3% p=-1.0hPa 401.001 MHz Type=RS41-SG ser=U3534526 Radiosonde
VE1RUSU35345262022-12-07 11:41:5044.6897-63.4902107267073Clb=4.8m/s t=-28.4C h=40.9% p=-1.0hPa 401.001 MHz Type=RS41-SG ser=U3534526 Radiosonde
VE1RUSU35345262022-12-07 11:40:5844.6912-63.4951109376829Clb=4.3m/s t=-26.8C h=53.8% p=-1.0hPa 401.001 MHz Type=RS41-SG ser=U3534526 Radiosonde
VE1RUSU35345262022-12-07 11:40:0444.6918-63.4976104466749Clb=4.3m/s t=-26.1C h=52.3% p=-1.0hPa 401.001 MHz Type=RS41-SG ser=U3534526 Radiosonde
VE1RUSU35345262022-12-07 11:39:2344.6926-63.5035111396560Clb=5.6m/s t=-24.5C h=51.3% p=-1.0hPa 401.001 MHz Type=RS41-SG ser=U3534526 Radiosonde
VE1RUSU35345262022-12-07 11:38:2444.6931-63.5069135246419Clb=6.7m/s t=-24.2C h=65.1% p=-1.0hPa 401.001 MHz Type=RS41-SG ser=U3534526 Radiosonde
VE1RUSU35345262022-12-07 11:37:2144.6929-63.507786156288Clb=4.3m/s t=-23.2C h=62.9% p=-1.0hPa 401.001 MHz Type=RS41-SG ser=U3534526 Radiosonde
VE1RUSU35345262022-12-07 11:36:2244.6926-63.5198156130Clb=6.6m/s t=-21.6C h=55.4% p=-1.0hPa 401.001 MHz Type=RS41-SG ser=U3534526 Radiosonde
VE1RUSU35345262022-12-07 11:35:4144.6927-63.512190245977Clb=7.5m/s t=-20.3C h=49.9% p=-1.0hPa 401.001 MHz Type=RS41-SG ser=U3534526 Radiosonde
VE1RUSU35345262022-12-07 11:35:1044.6925-63.514492265834Clb=6.5m/s t=-18.9C h=39.8% p=-1.0hPa 401.001 MHz Type=RS41-SG ser=U3534526 Radiosonde
VE1RUSU35345262022-12-07 11:34:4344.6927-63.5175111335677Clb=4.3m/s t=-18.2C h=48.3% p=-1.0hPa 401.001 MHz Type=RS41-SG ser=U3534526 Radiosonde
VE1RUSU35345262022-12-07 11:34:4144.6925-63.5205102285531Clb=4.9m/s t=-17.2C h=52.6% p=-1.0hPa 401.001 MHz Type=RS41-SG ser=U3534526 Radiosonde
VE1RUSU35345262022-12-07 11:34:3144.6917-63.523679315377Clb=4.1m/s t=-16.2C h=60.8% p=-1.0hPa 401.001 MHz Type=RS41-SG ser=U3534526 Radiosonde
VE1RUSU35345262022-12-07 11:33:4444.6907-63.526227225213Clb=6.6m/s t=-15.0C h=60.9% p=-1.0hPa 401.001 MHz Type=RS41-SG ser=U3534526 Radiosonde
VE1RUSU35345262022-12-07 11:32:5544.6895-63.527731335057Clb=6.7m/s t=-13.8C h=54.3% p=-1.0hPa 401.001 MHz Type=RS41-SG ser=U3534526 Radiosonde
VE1RUSU35345262022-12-07 11:32:0444.6879-63.529754314897Clb=4.3m/s t=-12.5C h=55.0% p=-1.0hPa 401.001 MHz Type=RS41-SG ser=U3534526 Radiosonde
VE1RUSU35345262022-12-07 11:31:3244.687-63.531260314737Clb=3.7m/s t=-11.0C h=48.6% p=-1.0hPa 401.001 MHz Type=RS41-SG ser=U3534526 Radiosonde
VE1RUSU35345262022-12-07 11:31:0144.6858-63.53319244589Clb=5.1m/s t=-10.6C h=46.5% p=-1.0hPa 401.001 MHz Type=RS41-SG ser=U3534526 Radiosonde
VE1RUSU35345262022-12-07 11:30:3044.6842-63.534420264435Clb=5.6m/s t=-9.3C h=24.6% p=-1.0hPa 401.001 MHz Type=RS41-SG ser=U3534526 Radiosonde
VE1RUSU35345262022-12-07 11:29:5944.6829-63.53638284281Clb=6.3m/s t=-8.7C h=2.5% p=-1.0hPa 401.001 MHz Type=RS41-SG ser=U3534526 Radiosonde
VE1RUSU35345262022-12-07 11:29:5244.6818-63.537665204129Clb=4.4m/s t=-7.8C h=2.6% p=-1.0hPa 401.001 MHz Type=RS41-SG ser=U3534526 Radiosonde
VE1RUSU35345262022-12-07 11:29:2044.6801-63.538917173976Clb=3.7m/s t=-6.8C h=4.4% p=-1.0hPa 401.001 MHz Type=RS41-SG ser=U3534526 Radiosonde
VE1RUSU35345262022-12-07 11:28:3444.6782-63.539513223821Clb=5.8m/s t=-6.2C h=8.4% p=-1.0hPa 401.001 MHz Type=RS41-SG ser=U3534526 Radiosonde
VE1RUSU35345262022-12-07 11:27:5544.6768-63.540419223667Clb=5.6m/s t=-5.1C h=8.5% p=-1.0hPa 401.001 MHz Type=RS41-SG ser=U3534526 Radiosonde
VE1RUSU35345262022-12-07 11:27:2444.6755-63.540963133520Clb=6.1m/s t=-4.0C h=5.9% p=-1.0hPa 401.001 MHz Type=RS41-SG ser=U3534526 Radiosonde
VE1RUSU35345262022-12-07 11:26:5344.6742-63.5411353263361Clb=4.3m/s t=-2.9C h=6.5% p=-1.0hPa 401.001 MHz Type=RS41-SG ser=U3534526 Radiosonde
VE1RUSU35345262022-12-07 11:26:2144.6729-63.541735173203Clb=4.0m/s t=-2.4C h=8.5% p=-1.0hPa 401.001 MHz Type=RS41-SG ser=U3534526 Radiosonde
VE1RUSU35345262022-12-07 11:25:5044.6714-63.5417347333051Clb=4.0m/s t=-1.2C h=5.1% p=-1.0hPa 401.001 MHz Type=RS41-SG ser=U3534526 Radiosonde
VE1RUSU35345262022-12-07 11:25:2444.6699-63.5414350112893Clb=4.5m/s t=0.1C h=3.5% p=-1.0hPa 401.001 MHz Type=RS41-SG ser=U3534526 Radiosonde
VE1RUSU35345262022-12-07 11:24:5944.6679-63.541316312715Clb=4.7m/s t=-2.4C h=77.1% p=-1.0hPa 401.001 MHz Type=RS41-SG ser=U3534526 Radiosonde
VE1RUSU35345262022-12-07 11:24:1944.6657-63.5425359152560Clb=6.0m/s t=-3.1C h=100.0% p=-1.0hPa 401.001 MHz Type=RS41-SG ser=U3534526 Radiosonde
VE1RUSU35345262022-12-07 11:23:4644.6635-63.543424392424Clb=6.0m/s t=-2.1C h=100.0% p=-1.0hPa 401.001 MHz Type=RS41-SG ser=U3534526 Radiosonde
VE1RUSU35345262022-12-07 11:23:1544.6611-63.544613222270Clb=7.3m/s t=-1.1C h=99.4% p=-1.0hPa 401.001 MHz Type=RS41-SG ser=U3534526 Radiosonde
VE1RUSU35345262022-12-07 11:22:4444.6585-63.54539412138Clb=3.7m/s t=0.1C h=93.6% p=-1.0hPa 401.001 MHz Type=RS41-SG ser=U3534526 Radiosonde
VE1RUSU35345262022-12-07 11:22:1344.656-63.546417331991Clb=4.8m/s t=1.4C h=87.7% p=-1.0hPa 401.001 MHz Type=RS41-SG ser=U3534526 Radiosonde
VE1RUSU35345262022-12-07 11:21:4244.6537-63.54730241829Clb=5.5m/s t=2.4C h=-1.0% p=-1.0hPa 401.001 MHz Type=RS41-SG ser=U3534526 Radiosonde
VE1RUSU35345262022-12-07 11:21:1144.6517-63.5474332131669Clb=5.1m/s t=-273.0C h=-1.0% p=-1.0hPa 401.001 MHz Type=RS41 ser=U3534526 Radiosonde
VE1RUSU35345262022-12-07 11:20:4344.6502-63.5463342311522Clb=6.1m/s t=-273.0C h=-1.0% p=-1.0hPa 401.001 MHz Type=RS41 ser=U3534526 Radiosonde
VE1RUSU35345262022-12-07 11:20:0944.6481-63.5441338411369Clb=4.5m/s t=-273.0C h=-1.0% p=-1.0hPa 401.001 MHz Type=RS41 ser=U3534526 Radiosonde